sensor_id;sensor_type;location;lat;lon;timestamp;temperature;humidity
34099;DHT22;20374;49.474;10.944;2023-05-10T00:02:08;15.40;99.90
34099;DHT22;20374;49.474;10.944;2023-05-10T00:04:34;15.40;99.90
34099;DHT22;20374;49.474;10.944;2023-05-10T00:06:59;15.30;99.90
34099;DHT22;20374;49.474;10.944;2023-05-10T00:09:25;15.20;99.90
34099;DHT22;20374;49.474;10.944;2023-05-10T00:11:51;15.20;99.90
34099;DHT22;20374;49.474;10.944;2023-05-10T00:14:17;15.00;99.90
34099;DHT22;20374;49.474;10.944;2023-05-10T00:16:43;14.90;99.90
34099;DHT22;20374;49.474;10.944;2023-05-10T00:19:09;14.90;99.90
34099;DHT22;20374;49.474;10.944;2023-05-10T00:21:35;14.80;99.90
34099;DHT22;20374;49.474;10.944;2023-05-10T00:24:01;14.70;99.90
34099;DHT22;20374;49.474;10.944;2023-05-10T00:26:27;14.60;99.90
34099;DHT22;20374;49.474;10.944;2023-05-10T00:28:55;14.50;99.90
34099;DHT22;20374;49.474;10.944;2023-05-10T00:31:22;14.40;99.90
34099;DHT22;20374;49.474;10.944;2023-05-10T00:33:49;14.30;99.90
34099;DHT22;20374;49.474;10.944;2023-05-10T00:36:15;14.30;99.90
34099;DHT22;20374;49.474;10.944;2023-05-10T00:38:41;14.30;99.90
34099;DHT22;20374;49.474;10.944;2023-05-10T00:41:07;14.20;99.90
34099;DHT22;20374;49.474;10.944;2023-05-10T00:43:35;14.20;99.90
34099;DHT22;20374;49.474;10.944;2023-05-10T00:46:04;14.20;99.90
34099;DHT22;20374;49.474;10.944;2023-05-10T00:48:30;14.10;99.90
34099;DHT22;20374;49.474;10.944;2023-05-10T00:50:56;14.10;99.90
34099;DHT22;20374;49.474;10.944;2023-05-10T00:53:22;14.00;99.90
34099;DHT22;20374;49.474;10.944;2023-05-10T00:55:48;14.00;99.90
34099;DHT22;20374;49.474;10.944;2023-05-10T00:58:14;13.90;99.90
34099;DHT22;20374;49.474;10.944;2023-05-10T01:00:42;13.90;99.90
34099;DHT22;20374;49.474;10.944;2023-05-10T01:03:10;13.90;99.90
34099;DHT22;20374;49.474;10.944;2023-05-10T01:05:37;13.90;99.90
34099;DHT22;20374;49.474;10.944;2023-05-10T01:08:03;13.90;99.90
34099;DHT22;20374;49.474;10.944;2023-05-10T01:10:30;13.80;99.90
34099;DHT22;20374;49.474;10.944;2023-05-10T01:12:56;13.80;99.90
34099;DHT22;20374;49.474;10.944;2023-05-10T01:15:22;13.80;99.90
34099;DHT22;20374;49.474;10.944;2023-05-10T01:17:49;13.80;99.90
34099;DHT22;20374;49.474;10.944;2023-05-10T01:20:15;13.90;99.90
34099;DHT22;20374;49.474;10.944;2023-05-10T01:23:18;13.90;99.90
34099;DHT22;20374;49.474;10.944;2023-05-10T01:31:58;13.90;99.90
34099;DHT22;20374;49.474;10.944;2023-05-10T01:34:53;13.90;99.90
34099;DHT22;20374;49.474;10.944;2023-05-10T01:37:45;13.70;99.90
34099;DHT22;20374;49.474;10.944;2023-05-10T01:43:02;13.80;99.90
34099;DHT22;20374;49.474;10.944;2023-05-10T01:45:37;13.80;99.90
34099;DHT22;20374;49.474;10.944;2023-05-10T01:48:11;13.80;99.90
34099;DHT22;20374;49.474;10.944;2023-05-10T01:50:42;13.80;99.90
34099;DHT22;20374;49.474;10.944;2023-05-10T01:53:11;13.70;99.90
34099;DHT22;20374;49.474;10.944;2023-05-10T01:55:49;13.80;99.90
34099;DHT22;20374;49.474;10.944;2023-05-10T01:58:29;13.80;99.90
34099;DHT22;20374;49.474;10.944;2023-05-10T02:00:58;13.80;99.90
34099;DHT22;20374;49.474;10.944;2023-05-10T02:03:26;13.70;99.90
34099;DHT22;20374;49.474;10.944;2023-05-10T02:05:54;13.70;99.90
34099;DHT22;20374;49.474;10.944;2023-05-10T02:08:22;13.70;99.90
34099;DHT22;20374;49.474;10.944;2023-05-10T02:10:51;13.70;99.90
34099;DHT22;20374;49.474;10.944;2023-05-10T02:13:18;13.70;99.90
34099;DHT22;20374;49.474;10.944;2023-05-10T02:15:48;13.70;99.90
34099;DHT22;20374;49.474;10.944;2023-05-10T02:18:14;13.70;99.90
34099;DHT22;20374;49.474;10.944;2023-05-10T02:20:43;13.70;99.90
34099;DHT22;20374;49.474;10.944;2023-05-10T02:23:11;13.70;99.90
34099;DHT22;20374;49.474;10.944;2023-05-10T02:25:38;13.70;99.90
34099;DHT22;20374;49.474;10.944;2023-05-10T02:28:06;13.70;99.90
34099;DHT22;20374;49.474;10.944;2023-05-10T02:30:33;13.70;99.90
34099;DHT22;20374;49.474;10.944;2023-05-10T02:33:01;13.70;99.90
34099;DHT22;20374;49.474;10.944;2023-05-10T02:35:29;13.70;99.90
34099;DHT22;20374;49.474;10.944;2023-05-10T02:37:57;13.70;99.90
34099;DHT22;20374;49.474;10.944;2023-05-10T02:40:24;13.70;99.90
34099;DHT22;20374;49.474;10.944;2023-05-10T02:42:54;13.70;99.90
34099;DHT22;20374;49.474;10.944;2023-05-10T02:45:24;13.70;99.90
34099;DHT22;20374;49.474;10.944;2023-05-10T02:47:52;13.70;99.90
34099;DHT22;20374;49.474;10.944;2023-05-10T02:50:20;13.70;99.90
34099;DHT22;20374;49.474;10.944;2023-05-10T02:52:51;13.70;99.90
34099;DHT22;20374;49.474;10.944;2023-05-10T02:55:25;13.70;99.90
34099;DHT22;20374;49.474;10.944;2023-05-10T02:57:56;13.60;99.90
34099;DHT22;20374;49.474;10.944;2023-05-10T03:00:24;13.60;99.90
34099;DHT22;20374;49.474;10.944;2023-05-10T03:02:50;13.70;99.90
34099;DHT22;20374;49.474;10.944;2023-05-10T03:05:16;13.50;99.90
34099;DHT22;20374;49.474;10.944;2023-05-10T03:07:43;13.50;99.90
34099;DHT22;20374;49.474;10.944;2023-05-10T03:10:09;13.40;99.90
34099;DHT22;20374;49.474;10.944;2023-05-10T03:15:11;13.40;99.90
34099;DHT22;20374;49.474;10.944;2023-05-10T03:18:54;13.30;99.90
34099;DHT22;20374;49.474;10.944;2023-05-10T03:20:47;13.30;99.90
34099;DHT22;20374;49.474;10.944;2023-05-10T03:23:22;13.30;99.90
34099;DHT22;20374;49.474;10.944;2023-05-10T03:25:50;13.30;99.90
34099;DHT22;20374;49.474;10.944;2023-05-10T03:28:18;13.20;99.90
34099;DHT22;20374;49.474;10.944;2023-05-10T03:30:45;13.20;99.90
34099;DHT22;20374;49.474;10.944;2023-05-10T03:33:12;13.10;99.90
34099;DHT22;20374;49.474;10.944;2023-05-10T03:35:44;13.10;99.90
34099;DHT22;20374;49.474;10.944;2023-05-10T03:38:12;13.10;99.90
34099;DHT22;20374;49.474;10.944;2023-05-10T03:40:39;13.10;99.90
34099;DHT22;20374;49.474;10.944;2023-05-10T03:43:05;13.00;99.90
34099;DHT22;20374;49.474;10.944;2023-05-10T03:45:31;13.00;99.90
34099;DHT22;20374;49.474;10.944;2023-05-10T03:47:57;12.90;99.90
34099;DHT22;20374;49.474;10.944;2023-05-10T03:50:24;12.90;99.90
34099;DHT22;20374;49.474;10.944;2023-05-10T03:52:50;12.80;99.90
34099;DHT22;20374;49.474;10.944;2023-05-10T03:55:16;12.90;99.90
34099;DHT22;20374;49.474;10.944;2023-05-10T03:57:42;12.80;99.90
34099;DHT22;20374;49.474;10.944;2023-05-10T04:00:09;12.80;99.90
34099;DHT22;20374;49.474;10.944;2023-05-10T04:02:41;12.80;99.90
34099;DHT22;20374;49.474;10.944;2023-05-10T04:05:10;12.80;99.90
34099;DHT22;20374;49.474;10.944;2023-05-10T04:07:36;12.80;99.90
34099;DHT22;20374;49.474;10.944;2023-05-10T04:10:02;12.70;99.90
34099;DHT22;20374;49.474;10.944;2023-05-10T04:12:28;12.70;99.90
34099;DHT22;20374;49.474;10.944;2023-05-10T04:14:54;12.70;99.90
34099;DHT22;20374;49.474;10.944;2023-05-10T04:17:20;12.70;99.90
34099;DHT22;20374;49.474;10.944;2023-05-10T04:19:46;12.60;99.90
34099;DHT22;20374;49.474;10.944;2023-05-10T04:22:12;12.70;99.90
34099;DHT22;20374;49.474;10.944;2023-05-10T04:24:38;12.70;99.90
34099;DHT22;20374;49.474;10.944;2023-05-10T04:27:04;12.60;99.90
34099;DHT22;20374;49.474;10.944;2023-05-10T04:29:30;12.60;99.90
34099;DHT22;20374;49.474;10.944;2023-05-10T04:31:56;12.60;99.90
34099;DHT22;20374;49.474;10.944;2023-05-10T04:34:22;12.60;99.90
34099;DHT22;20374;49.474;10.944;2023-05-10T04:36:48;12.60;99.90
34099;DHT22;20374;49.474;10.944;2023-05-10T04:39:14;12.50;99.90
34099;DHT22;20374;49.474;10.944;2023-05-10T04:41:40;12.50;99.90
34099;DHT22;20374;49.474;10.944;2023-05-10T04:44:06;12.50;99.90
34099;DHT22;20374;49.474;10.944;2023-05-10T04:46:32;12.60;99.90
34099;DHT22;20374;49.474;10.944;2023-05-10T04:48:58;12.50;99.90
34099;DHT22;20374;49.474;10.944;2023-05-10T04:51:24;12.60;99.90
34099;DHT22;20374;49.474;10.944;2023-05-10T04:53:50;12.60;99.90
34099;DHT22;20374;49.474;10.944;2023-05-10T04:56:16;12.50;99.90
34099;DHT22;20374;49.474;10.944;2023-05-10T04:58:45;12.50;99.90
34099;DHT22;20374;49.474;10.944;2023-05-10T05:01:11;12.60;99.90
34099;DHT22;20374;49.474;10.944;2023-05-10T05:03:37;12.60;99.90
34099;DHT22;20374;49.474;10.944;2023-05-10T05:06:04;12.60;99.90
34099;DHT22;20374;49.474;10.944;2023-05-10T05:08:30;12.60;99.90
34099;DHT22;20374;49.474;10.944;2023-05-10T05:10:56;12.60;99.90
34099;DHT22;20374;49.474;10.944;2023-05-10T05:13:22;12.50;99.90
34099;DHT22;20374;49.474;10.944;2023-05-10T05:15:48;12.60;99.90
34099;DHT22;20374;49.474;10.944;2023-05-10T05:18:14;12.60;99.90
34099;DHT22;20374;49.474;10.944;2023-05-10T05:20:40;12.60;99.90
34099;DHT22;20374;49.474;10.944;2023-05-10T05:23:06;12.60;99.90
34099;DHT22;20374;49.474;10.944;2023-05-10T05:25:32;12.70;99.90
34099;DHT22;20374;49.474;10.944;2023-05-10T05:27:57;12.60;99.90
34099;DHT22;20374;49.474;10.944;2023-05-10T05:30:23;12.60;99.90
34099;DHT22;20374;49.474;10.944;2023-05-10T05:32:49;12.70;99.90
34099;DHT22;20374;49.474;10.944;2023-05-10T05:35:15;12.70;99.90
34099;DHT22;20374;49.474;10.944;2023-05-10T05:37:41;12.80;99.90
34099;DHT22;20374;49.474;10.944;2023-05-10T05:40:08;12.80;99.90
34099;DHT22;20374;49.474;10.944;2023-05-10T05:42:34;12.80;99.90
34099;DHT22;20374;49.474;10.944;2023-05-10T05:45:00;12.80;99.90
34099;DHT22;20374;49.474;10.944;2023-05-10T05:47:25;12.90;99.90
34099;DHT22;20374;49.474;10.944;2023-05-10T05:49:51;12.90;99.90
34099;DHT22;20374;49.474;10.944;2023-05-10T05:52:17;12.90;99.90
34099;DHT22;20374;49.474;10.944;2023-05-10T05:54:43;12.90;99.90
34099;DHT22;20374;49.474;10.944;2023-05-10T05:57:09;13.00;99.90
34099;DHT22;20374;49.474;10.944;2023-05-10T05:59:38;13.00;99.90
34099;DHT22;20374;49.474;10.944;2023-05-10T06:02:09;13.00;99.90
34099;DHT22;20374;49.474;10.944;2023-05-10T06:04:35;13.10;99.90
34099;DHT22;20374;49.474;10.944;2023-05-10T06:07:01;13.10;99.90
34099;DHT22;20374;49.474;10.944;2023-05-10T06:09:27;13.10;99.90
34099;DHT22;20374;49.474;10.944;2023-05-10T06:11:53;13.30;99.90
34099;DHT22;20374;49.474;10.944;2023-05-10T06:14:22;13.40;99.90
34099;DHT22;20374;49.474;10.944;2023-05-10T06:16:48;13.40;99.90
34099;DHT22;20374;49.474;10.944;2023-05-10T06:19:14;13.50;99.90
34099;DHT22;20374;49.474;10.944;2023-05-10T06:21:40;13.50;99.90
34099;DHT22;20374;49.474;10.944;2023-05-10T06:24:06;13.50;99.90
34099;DHT22;20374;49.474;10.944;2023-05-10T06:26:32;13.50;99.90
34099;DHT22;20374;49.474;10.944;2023-05-10T06:28:58;13.60;99.90
34099;DHT22;20374;49.474;10.944;2023-05-10T06:31:24;13.70;99.90
34099;DHT22;20374;49.474;10.944;2023-05-10T06:33:50;13.80;99.90
34099;DHT22;20374;49.474;10.944;2023-05-10T06:36:16;14.00;99.90
34099;DHT22;20374;49.474;10.944;2023-05-10T06:38:42;13.90;99.90
34099;DHT22;20374;49.474;10.944;2023-05-10T06:41:08;14.00;99.90
34099;DHT22;20374;49.474;10.944;2023-05-10T06:43:34;14.10;99.90
34099;DHT22;20374;49.474;10.944;2023-05-10T06:46:00;14.10;99.90
34099;DHT22;20374;49.474;10.944;2023-05-10T06:48:26;14.10;99.90
34099;DHT22;20374;49.474;10.944;2023-05-10T06:50:52;14.20;99.90
34099;DHT22;20374;49.474;10.944;2023-05-10T06:53:18;14.40;99.90
34099;DHT22;20374;49.474;10.944;2023-05-10T06:55:43;14.50;99.90
34099;DHT22;20374;49.474;10.944;2023-05-10T06:58:09;14.70;99.90
34099;DHT22;20374;49.474;10.944;2023-05-10T07:00:35;14.60;99.90
34099;DHT22;20374;49.474;10.944;2023-05-10T07:03:06;14.80;99.90
34099;DHT22;20374;49.474;10.944;2023-05-10T07:05:32;15.00;99.90
34099;DHT22;20374;49.474;10.944;2023-05-10T07:07:58;15.20;99.90
34099;DHT22;20374;49.474;10.944;2023-05-10T07:10:24;15.10;99.90
34099;DHT22;20374;49.474;10.944;2023-05-10T07:12:50;15.30;99.90
34099;DHT22;20374;49.474;10.944;2023-05-10T07:15:15;15.30;99.90
34099;DHT22;20374;49.474;10.944;2023-05-10T07:17:41;15.20;99.90
34099;DHT22;20374;49.474;10.944;2023-05-10T07:20:08;15.00;99.90
34099;DHT22;20374;49.474;10.944;2023-05-10T07:22:34;14.90;99.90
34099;DHT22;20374;49.474;10.944;2023-05-10T07:25:00;14.90;99.90
34099;DHT22;20374;49.474;10.944;2023-05-10T07:27:26;15.00;99.90
34099;DHT22;20374;49.474;10.944;2023-05-10T07:29:52;15.00;99.90
34099;DHT22;20374;49.474;10.944;2023-05-10T07:32:18;15.10;99.90
34099;DHT22;20374;49.474;10.944;2023-05-10T07:34:43;15.20;99.90
34099;DHT22;20374;49.474;10.944;2023-05-10T07:37:09;15.10;99.90
34099;DHT22;20374;49.474;10.944;2023-05-10T07:39:35;15.10;99.90
34099;DHT22;20374;49.474;10.944;2023-05-10T07:42:01;14.90;99.90
34099;DHT22;20374;49.474;10.944;2023-05-10T07:44:28;14.90;99.90
34099;DHT22;20374;49.474;10.944;2023-05-10T07:46:54;14.70;99.90
34099;DHT22;20374;49.474;10.944;2023-05-10T07:49:21;14.80;99.90
34099;DHT22;20374;49.474;10.944;2023-05-10T07:51:47;14.80;99.90
34099;DHT22;20374;49.474;10.944;2023-05-10T07:54:14;14.80;99.90
34099;DHT22;20374;49.474;10.944;2023-05-10T07:56:39;15.20;99.90
34099;DHT22;20374;49.474;10.944;2023-05-10T07:59:10;15.60;99.90
34099;DHT22;20374;49.474;10.944;2023-05-10T08:01:40;15.80;99.90
34099;DHT22;20374;49.474;10.944;2023-05-10T08:04:05;16.10;99.90
34099;DHT22;20374;49.474;10.944;2023-05-10T08:06:31;16.00;99.90
34099;DHT22;20374;49.474;10.944;2023-05-10T08:08:57;15.90;99.90
34099;DHT22;20374;49.474;10.944;2023-05-10T08:11:23;15.70;99.90
34099;DHT22;20374;49.474;10.944;2023-05-10T08:13:51;15.70;99.90
34099;DHT22;20374;49.474;10.944;2023-05-10T08:16:17;15.80;99.90
34099;DHT22;20374;49.474;10.944;2023-05-10T08:18:44;15.70;99.90
34099;DHT22;20374;49.474;10.944;2023-05-10T08:21:11;15.70;99.90
34099;DHT22;20374;49.474;10.944;2023-05-10T08:23:37;15.70;99.90
34099;DHT22;20374;49.474;10.944;2023-05-10T08:26:03;15.80;99.90
34099;DHT22;20374;49.474;10.944;2023-05-10T08:28:28;16.00;99.90
34099;DHT22;20374;49.474;10.944;2023-05-10T08:30:55;16.40;99.90
34099;DHT22;20374;49.474;10.944;2023-05-10T08:33:21;16.50;99.90
34099;DHT22;20374;49.474;10.944;2023-05-10T08:35:47;16.60;99.90
34099;DHT22;20374;49.474;10.944;2023-05-10T08:38:13;16.80;99.90
34099;DHT22;20374;49.474;10.944;2023-05-10T08:40:42;16.70;99.90
34099;DHT22;20374;49.474;10.944;2023-05-10T08:43:09;16.40;99.90
34099;DHT22;20374;49.474;10.944;2023-05-10T08:45:43;16.20;99.90
34099;DHT22;20374;49.474;10.944;2023-05-10T08:48:11;16.00;99.90
34099;DHT22;20374;49.474;10.944;2023-05-10T08:50:39;15.80;99.90
34099;DHT22;20374;49.474;10.944;2023-05-10T08:53:09;15.30;99.90
34099;DHT22;20374;49.474;10.944;2023-05-10T08:55:35;14.90;99.90
34099;DHT22;20374;49.474;10.944;2023-05-10T08:58:06;14.70;99.90
34099;DHT22;20374;49.474;10.944;2023-05-10T09:00:33;14.40;99.90
34099;DHT22;20374;49.474;10.944;2023-05-10T09:02:59;14.30;99.90
34099;DHT22;20374;49.474;10.944;2023-05-10T09:05:25;14.20;99.90
34099;DHT22;20374;49.474;10.944;2023-05-10T09:07:51;14.20;99.90
34099;DHT22;20374;49.474;10.944;2023-05-10T09:10:17;14.20;99.90
34099;DHT22;20374;49.474;10.944;2023-05-10T09:12:44;14.30;99.90
34099;DHT22;20374;49.474;10.944;2023-05-10T09:15:11;14.50;99.90
34099;DHT22;20374;49.474;10.944;2023-05-10T09:17:39;14.60;99.90
34099;DHT22;20374;49.474;10.944;2023-05-10T09:20:06;15.10;99.90
34099;DHT22;20374;49.474;10.944;2023-05-10T09:22:34;15.60;99.90
34099;DHT22;20374;49.474;10.944;2023-05-10T09:27:34;16.90;99.90
34099;DHT22;20374;49.474;10.944;2023-05-10T09:30:00;17.40;99.90
34099;DHT22;20374;49.474;10.944;2023-05-10T09:32:37;17.60;99.90
34099;DHT22;20374;49.474;10.944;2023-05-10T09:35:14;17.60;99.90
34099;DHT22;20374;49.474;10.944;2023-05-10T09:37:42;17.60;99.90
34099;DHT22;20374;49.474;10.944;2023-05-10T09:40:11;17.80;99.90
34099;DHT22;20374;49.474;10.944;2023-05-10T09:42:38;18.00;99.90
34099;DHT22;20374;49.474;10.944;2023-05-10T09:45:05;18.10;99.90
34099;DHT22;20374;49.474;10.944;2023-05-10T09:47:35;18.30;99.90
34099;DHT22;20374;49.474;10.944;2023-05-10T09:50:02;18.10;99.90
34099;DHT22;20374;49.474;10.944;2023-05-10T09:52:30;18.30;99.90
34099;DHT22;20374;49.474;10.944;2023-05-10T09:54:56;18.80;99.90
34099;DHT22;20374;49.474;10.944;2023-05-10T09:57:24;20.30;99.90
34099;DHT22;20374;49.474;10.944;2023-05-10T09:59:50;21.50;99.90
34099;DHT22;20374;49.474;10.944;2023-05-10T10:02:17;22.70;97.80
34099;DHT22;20374;49.474;10.944;2023-05-10T10:04:43;23.00;95.50
34099;DHT22;20374;49.474;10.944;2023-05-10T10:07:09;22.30;94.80
34099;DHT22;20374;49.474;10.944;2023-05-10T10:09:35;21.30;96.40
34099;DHT22;20374;49.474;10.944;2023-05-10T10:12:04;21.30;96.80
34099;DHT22;20374;49.474;10.944;2023-05-10T10:14:30;21.80;96.00
34099;DHT22;20374;49.474;10.944;2023-05-10T10:16:56;22.30;92.70
34099;DHT22;20374;49.474;10.944;2023-05-10T10:19:22;22.70;93.10
34099;DHT22;20374;49.474;10.944;2023-05-10T10:21:49;22.50;91.70
34099;DHT22;20374;49.474;10.944;2023-05-10T10:24:16;21.80;92.10
34099;DHT22;20374;49.474;10.944;2023-05-10T10:26:42;20.60;93.10
34099;DHT22;20374;49.474;10.944;2023-05-10T10:29:34;19.50;95.70
34099;DHT22;20374;49.474;10.944;2023-05-10T10:32:33;18.60;97.70
34099;DHT22;20374;49.474;10.944;2023-05-10T10:35:01;18.00;99.90
34099;DHT22;20374;49.474;10.944;2023-05-10T10:37:48;17.60;99.90
34099;DHT22;20374;49.474;10.944;2023-05-10T10:40:29;17.20;99.90
34099;DHT22;20374;49.474;10.944;2023-05-10T10:42:55;17.10;99.90
34099;DHT22;20374;49.474;10.944;2023-05-10T10:45:23;17.10;99.90
34099;DHT22;20374;49.474;10.944;2023-05-10T10:47:53;17.00;99.90
34099;DHT22;20374;49.474;10.944;2023-05-10T10:50:19;17.00;99.90
34099;DHT22;20374;49.474;10.944;2023-05-10T10:52:45;17.00;99.90
34099;DHT22;20374;49.474;10.944;2023-05-10T10:55:14;17.00;99.90
34099;DHT22;20374;49.474;10.944;2023-05-10T11:00:36;17.00;99.90
34099;DHT22;20374;49.474;10.944;2023-05-10T11:03:10;17.00;99.90
34099;DHT22;20374;49.474;10.944;2023-05-10T11:05:41;17.40;99.90
34099;DHT22;20374;49.474;10.944;2023-05-10T11:08:14;17.70;99.90
34099;DHT22;20374;49.474;10.944;2023-05-10T11:11:08;18.50;99.90
34099;DHT22;20374;49.474;10.944;2023-05-10T11:13:38;19.10;99.90
34099;DHT22;20374;49.474;10.944;2023-05-10T11:16:11;19.20;99.90
34099;DHT22;20374;49.474;10.944;2023-05-10T11:18:37;19.10;99.90
34099;DHT22;20374;49.474;10.944;2023-05-10T11:21:03;18.70;99.90
34099;DHT22;20374;49.474;10.944;2023-05-10T11:23:54;18.50;99.90
34099;DHT22;20374;49.474;10.944;2023-05-10T11:26:25;18.20;99.90
34099;DHT22;20374;49.474;10.944;2023-05-10T11:28:54;18.20;99.90
34099;DHT22;20374;49.474;10.944;2023-05-10T11:31:27;18.00;99.90
34099;DHT22;20374;49.474;10.944;2023-05-10T11:33:55;18.00;99.90
34099;DHT22;20374;49.474;10.944;2023-05-10T11:36:27;18.00;99.90
34099;DHT22;20374;49.474;10.944;2023-05-10T11:38:55;17.90;99.90
34099;DHT22;20374;49.474;10.944;2023-05-10T11:41:23;17.80;99.90
34099;DHT22;20374;49.474;10.944;2023-05-10T11:43:54;17.80;99.90
34099;DHT22;20374;49.474;10.944;2023-05-10T11:46:26;17.70;99.90
34099;DHT22;20374;49.474;10.944;2023-05-10T11:49:07;17.70;99.90
34099;DHT22;20374;49.474;10.944;2023-05-10T11:51:39;17.70;99.90
34099;DHT22;20374;49.474;10.944;2023-05-10T11:54:09;17.50;99.90
34099;DHT22;20374;49.474;10.944;2023-05-10T11:56:37;17.60;99.90
34099;DHT22;20374;49.474;10.944;2023-05-10T11:59:04;17.50;99.90
34099;DHT22;20374;49.474;10.944;2023-05-10T12:01:34;17.30;99.90
34099;DHT22;20374;49.474;10.944;2023-05-10T12:04:04;17.30;99.90
34099;DHT22;20374;49.474;10.944;2023-05-10T12:06:32;17.40;99.90
34099;DHT22;20374;49.474;10.944;2023-05-10T12:09:01;17.40;99.90
34099;DHT22;20374;49.474;10.944;2023-05-10T12:11:30;17.50;99.90
34099;DHT22;20374;49.474;10.944;2023-05-10T12:13:57;17.60;99.90
34099;DHT22;20374;49.474;10.944;2023-05-10T12:16:25;17.80;99.90
34099;DHT22;20374;49.474;10.944;2023-05-10T12:18:52;18.00;99.90
34099;DHT22;20374;49.474;10.944;2023-05-10T12:21:20;18.10;99.90
34099;DHT22;20374;49.474;10.944;2023-05-10T12:23:48;18.30;99.90
34099;DHT22;20374;49.474;10.944;2023-05-10T12:26:15;18.60;99.90
34099;DHT22;20374;49.474;10.944;2023-05-10T12:28:41;18.90;99.90
34099;DHT22;20374;49.474;10.944;2023-05-10T12:31:07;18.80;99.90
34099;DHT22;20374;49.474;10.944;2023-05-10T12:33:38;18.50;99.90
34099;DHT22;20374;49.474;10.944;2023-05-10T12:36:06;18.60;99.90
34099;DHT22;20374;49.474;10.944;2023-05-10T12:38:33;18.60;99.90
34099;DHT22;20374;49.474;10.944;2023-05-10T12:41:10;18.60;99.90
34099;DHT22;20374;49.474;10.944;2023-05-10T12:43:36;18.70;99.90
34099;DHT22;20374;49.474;10.944;2023-05-10T12:48:32;19.10;99.70
34099;DHT22;20374;49.474;10.944;2023-05-10T12:51:00;19.20;99.90
34099;DHT22;20374;49.474;10.944;2023-05-10T12:53:26;19.30;99.90
34099;DHT22;20374;49.474;10.944;2023-05-10T12:55:52;19.40;99.10
34099;DHT22;20374;49.474;10.944;2023-05-10T12:58:18;19.10;99.60
34099;DHT22;20374;49.474;10.944;2023-05-10T13:00:44;19.00;99.90
34099;DHT22;20374;49.474;10.944;2023-05-10T13:03:10;19.20;99.90
34099;DHT22;20374;49.474;10.944;2023-05-10T13:05:37;19.60;99.60
34099;DHT22;20374;49.474;10.944;2023-05-10T13:08:03;19.70;97.80
34099;DHT22;20374;49.474;10.944;2023-05-10T13:10:30;19.60;97.80
34099;DHT22;20374;49.474;10.944;2023-05-10T13:12:56;19.60;99.20
34099;DHT22;20374;49.474;10.944;2023-05-10T13:15:22;19.70;98.90
34099;DHT22;20374;49.474;10.944;2023-05-10T13:17:48;20.00;99.80
34099;DHT22;20374;49.474;10.944;2023-05-10T13:20:15;20.20;99.50
34099;DHT22;20374;49.474;10.944;2023-05-10T13:22:43;20.40;99.90
34099;DHT22;20374;49.474;10.944;2023-05-10T13:25:10;20.30;97.20
34099;DHT22;20374;49.474;10.944;2023-05-10T13:27:37;20.30;97.30
34099;DHT22;20374;49.474;10.944;2023-05-10T13:30:03;20.20;95.70
34099;DHT22;20374;49.474;10.944;2023-05-10T13:32:29;19.90;95.40
34099;DHT22;20374;49.474;10.944;2023-05-10T13:34:56;19.80;96.20
34099;DHT22;20374;49.474;10.944;2023-05-10T13:37:22;19.80;95.60
34099;DHT22;20374;49.474;10.944;2023-05-10T13:39:48;19.90;95.90
34099;DHT22;20374;49.474;10.944;2023-05-10T13:42:14;19.80;95.00
34099;DHT22;20374;49.474;10.944;2023-05-10T13:44:40;19.60;95.30
34099;DHT22;20374;49.474;10.944;2023-05-10T13:47:06;19.30;95.50
34099;DHT22;20374;49.474;10.944;2023-05-10T13:49:32;19.30;96.50
34099;DHT22;20374;49.474;10.944;2023-05-10T13:51:59;19.10;96.20
34099;DHT22;20374;49.474;10.944;2023-05-10T13:54:33;18.90;96.80
34099;DHT22;20374;49.474;10.944;2023-05-10T13:56:59;18.60;97.20
34099;DHT22;20374;49.474;10.944;2023-05-10T13:59:25;18.50;98.30
34099;DHT22;20374;49.474;10.944;2023-05-10T14:01:52;18.40;99.00
34099;DHT22;20374;49.474;10.944;2023-05-10T14:04:18;18.30;99.30
34099;DHT22;20374;49.474;10.944;2023-05-10T14:06:44;18.20;99.90
34099;DHT22;20374;49.474;10.944;2023-05-10T14:09:09;18.10;99.90
34099;DHT22;20374;49.474;10.944;2023-05-10T14:11:36;18.20;99.90
34099;DHT22;20374;49.474;10.944;2023-05-10T14:14:02;18.30;99.90
34099;DHT22;20374;49.474;10.944;2023-05-10T14:16:29;18.30;99.90
34099;DHT22;20374;49.474;10.944;2023-05-10T14:18:57;18.30;99.90
34099;DHT22;20374;49.474;10.944;2023-05-10T14:21:23;18.30;99.90
34099;DHT22;20374;49.474;10.944;2023-05-10T14:23:49;18.30;99.90
34099;DHT22;20374;49.474;10.944;2023-05-10T14:26:15;18.30;99.90
34099;DHT22;20374;49.474;10.944;2023-05-10T14:28:41;18.40;99.90
34099;DHT22;20374;49.474;10.944;2023-05-10T14:31:07;18.50;99.90
34099;DHT22;20374;49.474;10.944;2023-05-10T14:33:34;18.50;99.90
34099;DHT22;20374;49.474;10.944;2023-05-10T14:35:59;18.40;99.90
34099;DHT22;20374;49.474;10.944;2023-05-10T14:38:26;18.30;99.90
34099;DHT22;20374;49.474;10.944;2023-05-10T14:40:52;18.30;99.90
34099;DHT22;20374;49.474;10.944;2023-05-10T14:43:18;18.30;99.90
34099;DHT22;20374;49.474;10.944;2023-05-10T14:45:44;18.30;99.90
34099;DHT22;20374;49.474;10.944;2023-05-10T14:48:11;18.20;99.90
34099;DHT22;20374;49.474;10.944;2023-05-10T14:50:41;18.10;99.90
34099;DHT22;20374;49.474;10.944;2023-05-10T14:53:07;18.10;99.90
34099;DHT22;20374;49.474;10.944;2023-05-10T14:55:33;18.00;99.90
34099;DHT22;20374;49.474;10.944;2023-05-10T14:58:01;17.90;99.90
34099;DHT22;20374;49.474;10.944;2023-05-10T15:00:28;17.70;99.90
34099;DHT22;20374;49.474;10.944;2023-05-10T15:02:54;17.30;99.90
34099;DHT22;20374;49.474;10.944;2023-05-10T15:05:20;17.00;99.90
34099;DHT22;20374;49.474;10.944;2023-05-10T15:07:46;16.80;99.90
34099;DHT22;20374;49.474;10.944;2023-05-10T15:10:12;16.70;99.90
34099;DHT22;20374;49.474;10.944;2023-05-10T15:12:39;16.60;99.90
34099;DHT22;20374;49.474;10.944;2023-05-10T15:15:06;16.50;99.90
34099;DHT22;20374;49.474;10.944;2023-05-10T15:17:33;16.50;99.90
34099;DHT22;20374;49.474;10.944;2023-05-10T15:20:00;16.40;99.90
34099;DHT22;20374;49.474;10.944;2023-05-10T15:22:29;16.40;99.90
34099;DHT22;20374;49.474;10.944;2023-05-10T15:24:55;16.30;99.90
34099;DHT22;20374;49.474;10.944;2023-05-10T15:27:21;16.40;99.90
34099;DHT22;20374;49.474;10.944;2023-05-10T15:29:47;16.40;99.90
34099;DHT22;20374;49.474;10.944;2023-05-10T15:32:13;16.30;99.90
34099;DHT22;20374;49.474;10.944;2023-05-10T15:34:39;16.20;99.90
34099;DHT22;20374;49.474;10.944;2023-05-10T15:37:07;16.10;99.90
34099;DHT22;20374;49.474;10.944;2023-05-10T15:39:33;16.10;99.90